createdAt,value
2023-03-20T00:01:00.511Z,22.9338
2023-03-20T00:02:01.972Z,22.9307
2023-03-20T00:03:03.395Z,22.8968
2023-03-20T00:04:04.914Z,22.9038
2023-03-20T00:05:06.363Z,22.9126
2023-03-20T00:06:07.721Z,22.9321
2023-03-20T00:07:09.171Z,22.9030
2023-03-20T00:08:10.600Z,22.9126
2023-03-20T00:09:12.034Z,22.9149
2023-03-20T00:10:13.479Z,22.9108
2023-03-20T00:11:14.934Z,22.8931
2023-03-20T00:12:16.412Z,22.8917
2023-03-20T00:13:17.804Z,22.8933
2023-03-20T00:14:19.245Z,22.9042
2023-03-20T00:15:20.680Z,22.8859
2023-03-20T00:16:22.176Z,22.8987
2023-03-20T00:17:23.588Z,22.9139
2023-03-20T00:18:25.010Z,22.9215
2023-03-20T00:19:26.441Z,22.8845
2023-03-20T00:20:28.421Z,22.9106
2023-03-20T00:21:29.330Z,22.9028
2023-03-20T00:22:30.772Z,22.9190
2023-03-20T00:23:32.210Z,22.8964
2023-03-20T00:24:33.724Z,22.9085
2023-03-20T00:25:35.455Z,22.9081
2023-03-20T00:26:36.609Z,22.8970
2023-03-20T00:27:38.032Z,22.9385
2023-03-20T00:28:39.502Z,23.1546
2023-03-20T00:29:40.915Z,23.0034
2023-03-20T00:30:42.354Z,22.9927
2023-03-20T00:31:43.853Z,22.9874
2023-03-20T00:32:45.244Z,22.9504
2023-03-20T00:33:46.709Z,22.9393
2023-03-20T00:34:48.141Z,22.9161
2023-03-20T00:35:49.578Z,22.9052
2023-03-20T00:36:51.000Z,22.8954
2023-03-20T00:37:52.443Z,22.9009
2023-03-20T00:38:53.905Z,22.8952
2023-03-20T00:39:55.334Z,22.8874
2023-03-20T00:40:56.764Z,22.8909
2023-03-20T00:41:58.248Z,22.8736
2023-03-20T00:42:59.651Z,22.8843
2023-03-20T00:44:01.121Z,22.8802
2023-03-20T00:45:02.538Z,22.8867
2023-03-20T00:46:04.039Z,22.8824
2023-03-20T00:47:05.462Z,22.9182
2023-03-20T00:48:06.858Z,23.0176
2023-03-20T00:49:08.310Z,22.9683
2023-03-20T00:50:09.750Z,22.9568
2023-03-20T00:51:11.192Z,22.9200
2023-03-20T00:52:12.784Z,22.8867
2023-03-20T00:53:14.074Z,22.8660
2023-03-20T00:54:15.544Z,22.8383
2023-03-20T00:55:16.958Z,22.8272
2023-03-20T00:56:18.388Z,22.8140
2023-03-20T00:57:19.859Z,22.8329
2023-03-20T00:58:21.301Z,22.8099
2023-03-20T00:59:22.728Z,22.8101
2023-03-20T01:00:24.165Z,22.8208
2023-03-20T01:01:25.636Z,22.7994
2023-03-20T01:02:27.116Z,22.8142
2023-03-20T01:03:28.489Z,22.7949
2023-03-20T01:04:29.932Z,22.8111
2023-03-20T01:05:31.400Z,22.7931
2023-03-20T01:06:32.817Z,22.8200
2023-03-20T01:07:34.281Z,22.7972
2023-03-20T01:08:35.703Z,22.7867
2023-03-20T01:09:37.156Z,22.8111
2023-03-20T01:10:38.596Z,22.8198
2023-03-20T01:11:40.052Z,22.8058
2023-03-20T01:12:41.468Z,22.8011
2023-03-20T01:13:42.938Z,22.7898
2023-03-20T01:14:44.370Z,22.7929
2023-03-20T01:15:45.803Z,22.8038
2023-03-20T01:16:47.327Z,22.7939
2023-03-20T01:17:48.733Z,22.7820
2023-03-20T01:18:50.118Z,22.7910
2023-03-20T01:19:51.582Z,22.8017
2023-03-20T01:20:53.074Z,22.8058
2023-03-20T01:21:54.460Z,22.8144
2023-03-20T01:22:55.880Z,22.8120
2023-03-20T01:23:57.323Z,22.7912
2023-03-20T01:24:58.761Z,22.7937
2023-03-20T01:26:00.223Z,22.8074
2023-03-20T01:27:01.639Z,22.8218
2023-03-20T01:28:03.093Z,22.8155
2023-03-20T01:29:04.533Z,22.8218
2023-03-20T01:30:05.968Z,22.8163
2023-03-20T01:31:07.425Z,22.8038
2023-03-20T01:32:08.881Z,22.8163
2023-03-20T01:33:10.358Z,22.8305
2023-03-20T01:34:11.748Z,22.8058
2023-03-20T01:35:13.178Z,22.8196
2023-03-20T01:36:14.651Z,22.8013
2023-03-20T01:37:16.054Z,22.7984
2023-03-20T01:38:17.519Z,22.7799
2023-03-20T01:39:18.944Z,22.7918
2023-03-20T01:40:20.370Z,22.8183
2023-03-20T01:41:21.806Z,22.7752
2023-03-20T01:42:23.241Z,22.7949
2023-03-20T01:43:24.706Z,22.7877
2023-03-20T01:44:26.125Z,22.7789
2023-03-20T01:45:27.569Z,22.7898
2023-03-20T01:46:29.021Z,22.7697
2023-03-20T01:47:30.461Z,22.7756
2023-03-20T01:48:31.916Z,22.7731
2023-03-20T01:49:33.348Z,22.7916
2023-03-20T01:50:34.768Z,22.9009
2023-03-20T01:51:36.198Z,22.8274
2023-03-20T01:52:37.651Z,22.8442
2023-03-20T01:53:39.092Z,22.8070
2023-03-20T01:54:40.543Z,22.8081
2023-03-20T01:55:41.962Z,22.8231
2023-03-20T01:56:43.415Z,22.8641
2023-03-20T01:57:44.845Z,22.7949
2023-03-20T01:58:46.295Z,22.8087
2023-03-20T01:59:47.737Z,22.7865
2023-03-20T02:00:49.208Z,22.7692
2023-03-20T02:01:50.631Z,22.7867
2023-03-20T02:02:52.101Z,22.7777
2023-03-20T02:03:53.496Z,22.7844
2023-03-20T02:04:55.019Z,22.7563
2023-03-20T02:05:56.383Z,22.7801
2023-03-20T02:06:57.825Z,22.7666
2023-03-20T02:07:59.263Z,22.7777
2023-03-20T02:09:00.706Z,22.7655
2023-03-20T02:10:02.146Z,22.7666
2023-03-20T02:11:03.579Z,22.7758
2023-03-20T02:12:05.022Z,22.7660
2023-03-20T02:13:06.493Z,22.7812
2023-03-20T02:14:07.902Z,22.7756
2023-03-20T02:15:09.357Z,22.7627
2023-03-20T02:16:10.787Z,22.7563
2023-03-20T02:17:12.225Z,22.7672
2023-03-20T02:18:13.677Z,22.7643
2023-03-20T02:19:15.112Z,22.7563
2023-03-20T02:20:16.549Z,22.7612
2023-03-20T02:21:17.995Z,22.7655
2023-03-20T02:22:19.462Z,22.7540
2023-03-20T02:23:20.871Z,22.7540
2023-03-20T02:24:22.311Z,22.7582
2023-03-20T02:25:23.755Z,22.7530
2023-03-20T02:26:25.193Z,22.7551
2023-03-20T02:27:26.639Z,22.7594
2023-03-20T02:28:28.078Z,22.7530
2023-03-20T02:29:29.531Z,22.7549
2023-03-20T02:30:30.962Z,22.7614
2023-03-20T02:31:32.428Z,22.7627
2023-03-20T02:32:33.900Z,22.7664
2023-03-20T02:33:35.304Z,22.7592
2023-03-20T02:34:36.734Z,22.7477
2023-03-20T02:35:38.562Z,22.7670
2023-03-20T02:36:39.627Z,22.7561
2023-03-20T02:37:41.060Z,22.7797
2023-03-20T02:38:42.526Z,22.7643
2023-03-20T02:39:43.955Z,22.7744
2023-03-20T02:40:45.369Z,22.7594
2023-03-20T02:41:46.846Z,22.7660
2023-03-20T02:42:48.252Z,22.7699
2023-03-20T02:43:49.693Z,22.7559
2023-03-20T02:44:51.155Z,22.7602
2023-03-20T02:45:52.622Z,22.7559
2023-03-20T02:46:54.018Z,22.7436
2023-03-20T02:47:55.483Z,22.7477
2023-03-20T02:48:56.909Z,22.7573
2023-03-20T02:49:58.349Z,22.7723
2023-03-20T02:50:59.782Z,22.7540
2023-03-20T02:52:01.326Z,22.7690
2023-03-20T02:53:02.657Z,22.7573
2023-03-20T02:54:04.145Z,22.7614
2023-03-20T02:55:05.571Z,22.7530
2023-03-20T02:56:06.999Z,22.7645
2023-03-20T02:57:08.427Z,22.7670
2023-03-20T02:58:09.872Z,22.7592
2023-03-20T02:59:11.306Z,22.7528
2023-03-20T03:00:12.750Z,22.7592
2023-03-20T03:01:14.213Z,22.7571
2023-03-20T03:02:15.682Z,22.7655
2023-03-20T03:03:17.080Z,22.7549
2023-03-20T03:04:18.630Z,22.7625
2023-03-20T03:05:19.982Z,22.7458
2023-03-20T03:06:21.405Z,22.7756
2023-03-20T03:07:22.850Z,22.7736
2023-03-20T03:08:24.281Z,22.7810
2023-03-20T03:09:25.729Z,22.7721
2023-03-20T03:10:27.170Z,22.7855
2023-03-20T03:11:28.600Z,22.7797
2023-03-20T03:12:30.056Z,22.8040
2023-03-20T03:13:31.479Z,22.7799
2023-03-20T03:14:32.929Z,22.7896
2023-03-20T03:15:34.754Z,22.7801
2023-03-20T03:16:35.814Z,22.7842
2023-03-20T03:17:37.261Z,22.7797
2023-03-20T03:18:38.697Z,22.7879
2023-03-20T03:19:40.143Z,22.7812
2023-03-20T03:20:41.582Z,22.7877
2023-03-20T03:21:43.041Z,22.7906
2023-03-20T03:22:44.459Z,22.7896
2023-03-20T03:23:45.940Z,22.7941
2023-03-20T03:24:47.334Z,22.7625
2023-03-20T03:25:48.780Z,22.7834
2023-03-20T03:26:50.255Z,22.7633
2023-03-20T03:27:51.663Z,22.7668
2023-03-20T03:28:53.108Z,22.7756
2023-03-20T03:29:54.550Z,22.7740
2023-03-20T03:30:56.023Z,22.7756
2023-03-20T03:31:57.438Z,22.7573
2023-03-20T03:32:58.954Z,22.7645
2023-03-20T03:34:00.318Z,22.7734
2023-03-20T03:35:01.746Z,22.7658
2023-03-20T03:36:03.258Z,22.7723
2023-03-20T03:37:04.628Z,22.7647
2023-03-20T03:38:06.080Z,22.7670
2023-03-20T03:39:07.526Z,22.7614
2023-03-20T03:40:08.974Z,22.7649
2023-03-20T03:41:10.389Z,22.7734
2023-03-20T03:42:11.848Z,22.7415
2023-03-20T03:43:13.415Z,22.7436
2023-03-20T03:44:14.734Z,22.7497
2023-03-20T03:45:16.188Z,22.7563
2023-03-20T03:46:17.655Z,22.7520
2023-03-20T03:47:19.055Z,22.7604
2023-03-20T03:48:20.492Z,22.7777
2023-03-20T03:49:21.964Z,22.7510
2023-03-20T03:50:23.371Z,22.7602
2023-03-20T03:51:24.816Z,22.7573
2023-03-20T03:52:26.269Z,22.7551
2023-03-20T03:53:27.716Z,22.7477
2023-03-20T03:54:29.137Z,22.7592
2023-03-20T03:55:30.599Z,22.7553
2023-03-20T03:56:32.013Z,22.7446
2023-03-20T03:57:33.464Z,22.7374
2023-03-20T03:58:34.913Z,22.7540
2023-03-20T03:59:36.480Z,22.7425
2023-03-20T04:00:37.773Z,22.7331
2023-03-20T04:01:39.207Z,22.7456
2023-03-20T04:02:40.653Z,22.7372
2023-03-20T04:03:42.103Z,22.7384
2023-03-20T04:04:43.570Z,22.7321
2023-03-20T04:05:44.969Z,22.7275
2023-03-20T04:06:46.406Z,22.7372
2023-03-20T04:07:47.846Z,22.7415
2023-03-20T04:08:49.331Z,22.7382
2023-03-20T04:09:50.732Z,22.7395
2023-03-20T04:10:52.175Z,22.7321
2023-03-20T04:11:53.627Z,22.7364
2023-03-20T04:12:55.067Z,22.7236
2023-03-20T04:13:56.496Z,22.7384
2023-03-20T04:14:57.946Z,22.7275
2023-03-20T04:15:59.418Z,22.7321
2023-03-20T04:17:00.821Z,22.7444
2023-03-20T04:18:02.258Z,22.7265
2023-03-20T04:19:03.705Z,22.7236
2023-03-20T04:20:05.141Z,22.7280
2023-03-20T04:21:06.592Z,22.7265
2023-03-20T04:22:08.021Z,22.7234
2023-03-20T04:23:09.484Z,22.7224
2023-03-20T04:24:10.908Z,22.7351
2023-03-20T04:25:12.342Z,22.7243
2023-03-20T04:26:13.846Z,22.7247
2023-03-20T04:27:15.297Z,22.7364
2023-03-20T04:28:16.759Z,22.7193
2023-03-20T04:29:18.182Z,22.7323
2023-03-20T04:30:19.611Z,22.7245
2023-03-20T04:31:21.073Z,22.7278
2023-03-20T04:32:22.480Z,22.7290
2023-03-20T04:33:23.922Z,22.7310
2023-03-20T04:34:25.379Z,22.7236
2023-03-20T04:35:26.809Z,22.7126
2023-03-20T04:36:28.240Z,22.7160
2023-03-20T04:37:29.690Z,22.7128
2023-03-20T04:38:31.131Z,22.7226
2023-03-20T04:39:32.571Z,22.7214
2023-03-20T04:40:34.001Z,22.7226
2023-03-20T04:41:35.499Z,22.7171
2023-03-20T04:42:36.881Z,22.7269
2023-03-20T04:43:38.329Z,22.7226
2023-03-20T04:44:39.798Z,22.7364
2023-03-20T04:45:41.255Z,22.7278
2023-03-20T04:46:42.655Z,22.7372
2023-03-20T04:47:44.090Z,22.7384
2023-03-20T04:48:45.556Z,22.7298
2023-03-20T04:49:46.968Z,22.7302
2023-03-20T04:50:48.440Z,22.7179
2023-03-20T04:51:49.848Z,22.7204
2023-03-20T04:52:51.277Z,22.7257
2023-03-20T04:53:52.730Z,22.7173
2023-03-20T04:54:54.169Z,22.7160
2023-03-20T04:55:55.611Z,22.7255
2023-03-20T04:56:57.081Z,22.7282
2023-03-20T04:57:58.488Z,22.7052
2023-03-20T04:58:59.930Z,22.7216
2023-03-20T05:00:01.388Z,22.7078
2023-03-20T05:01:02.849Z,22.7148
2023-03-20T05:02:04.240Z,22.7187
2023-03-20T05:03:05.677Z,22.7171
2023-03-20T05:04:07.165Z,22.7236
2023-03-20T05:05:08.558Z,22.7156
2023-03-20T05:06:09.994Z,22.7288
2023-03-20T05:07:11.424Z,22.7214
2023-03-20T05:08:12.866Z,22.7351
2023-03-20T05:09:14.287Z,22.7403
2023-03-20T05:10:15.729Z,22.7193
2023-03-20T05:11:17.178Z,22.7107
2023-03-20T05:12:18.614Z,22.7212
2023-03-20T05:13:20.040Z,22.7236
2023-03-20T05:14:21.474Z,22.7271
2023-03-20T05:15:22.915Z,22.7236
2023-03-20T05:16:24.399Z,22.7191
2023-03-20T05:17:25.787Z,22.7259
2023-03-20T05:18:27.237Z,22.7239
2023-03-20T05:19:28.660Z,22.7160
2023-03-20T05:20:30.126Z,22.7216
2023-03-20T05:21:31.553Z,22.7249
2023-03-20T05:22:32.982Z,22.7017
2023-03-20T05:23:34.426Z,22.7070
2023-03-20T05:24:35.858Z,22.7117
2023-03-20T05:25:37.413Z,22.7257
2023-03-20T05:26:38.739Z,22.7070
2023-03-20T05:27:40.180Z,22.7319
2023-03-20T05:28:41.617Z,22.7288
2023-03-20T05:29:43.076Z,22.7179
2023-03-20T05:30:44.509Z,22.7855
2023-03-20T05:31:45.948Z,22.7319
2023-03-20T05:32:47.440Z,22.7469
2023-03-20T05:33:48.831Z,22.7448
2023-03-20T05:34:50.284Z,22.7150
2023-03-20T05:35:51.756Z,22.7425
2023-03-20T05:36:53.161Z,22.7397
2023-03-20T05:37:54.584Z,22.7705
2023-03-20T05:38:56.029Z,22.7257
2023-03-20T05:39:57.462Z,22.7236
2023-03-20T05:40:58.907Z,22.7372
2023-03-20T05:42:00.364Z,22.7208
2023-03-20T05:43:01.798Z,22.7158
2023-03-20T05:44:03.224Z,22.7160
2023-03-20T05:45:04.671Z,22.7082
2023-03-20T05:46:06.130Z,22.6965
2023-03-20T05:47:07.552Z,22.7222
2023-03-20T05:48:08.984Z,22.7060
2023-03-20T05:49:10.430Z,22.7115
2023-03-20T05:50:11.860Z,22.7226
2023-03-20T05:51:13.307Z,22.7191
2023-03-20T05:52:14.744Z,22.7103
2023-03-20T05:53:16.182Z,22.7160
2023-03-20T05:54:17.613Z,22.7280
2023-03-20T05:55:19.051Z,22.7062
2023-03-20T05:56:20.514Z,22.6984
2023-03-20T05:57:21.965Z,22.7150
2023-03-20T05:58:23.403Z,22.7160
2023-03-20T05:59:24.825Z,22.7095
2023-03-20T06:00:26.260Z,22.7004
2023-03-20T06:01:27.697Z,22.7123
2023-03-20T06:02:29.292Z,22.7058
2023-03-20T06:03:30.592Z,22.7004
2023-03-20T06:04:32.036Z,22.7132
2023-03-20T06:05:33.646Z,22.7074
2023-03-20T06:06:34.895Z,22.7037
2023-03-20T06:07:36.346Z,22.6902
2023-03-20T06:08:37.773Z,22.7039
2023-03-20T06:09:39.219Z,22.7095
2023-03-20T06:10:40.662Z,22.7047
2023-03-20T06:11:42.107Z,22.7109
2023-03-20T06:12:43.536Z,22.7072
2023-03-20T06:13:44.975Z,22.7082
2023-03-20T06:14:46.411Z,22.7126
2023-03-20T06:15:47.893Z,22.7169
2023-03-20T06:16:49.291Z,22.7123
2023-03-20T06:17:50.734Z,22.6974
2023-03-20T06:18:52.165Z,22.7050
2023-03-20T06:19:53.606Z,22.7037
2023-03-20T06:20:55.081Z,22.7158
2023-03-20T06:21:56.515Z,22.7123
2023-03-20T06:22:57.915Z,22.7052
2023-03-20T06:23:59.357Z,22.7169
2023-03-20T06:25:00.804Z,22.7093
2023-03-20T06:26:02.216Z,22.7115
2023-03-20T06:27:03.664Z,22.7126
2023-03-20T06:28:05.097Z,22.7019
2023-03-20T06:29:06.555Z,22.7070
2023-03-20T06:30:07.992Z,22.7062
2023-03-20T06:31:09.477Z,22.7019
2023-03-20T06:32:10.867Z,22.7204
2023-03-20T06:33:12.345Z,22.7082
2023-03-20T06:34:13.724Z,22.7017
2023-03-20T06:35:15.195Z,22.7060
2023-03-20T06:36:16.619Z,22.7236
2023-03-20T06:37:18.068Z,22.7097
2023-03-20T06:38:19.489Z,22.7039
2023-03-20T06:39:20.948Z,22.7052
2023-03-20T06:40:22.374Z,22.7222
2023-03-20T06:41:34.300Z,21.7395
2023-03-20T06:42:25.266Z,17.0845
2023-03-20T06:43:26.729Z,16.5893
2023-03-20T06:44:28.141Z,16.1136
2023-03-20T06:45:29.600Z,15.4877
2023-03-20T06:46:31.109Z,15.9383
2023-03-20T06:47:32.486Z,15.2841
2023-03-20T06:48:33.947Z,15.3424
2023-03-20T06:49:35.434Z,15.3973
2023-03-20T06:50:36.835Z,15.4585
2023-03-20T06:51:38.312Z,18.0935
2023-03-20T06:52:39.722Z,19.3182
2023-03-20T06:53:41.165Z,20.1020
2023-03-20T06:54:42.593Z,20.5038
2023-03-20T06:55:44.054Z,20.7905
2023-03-20T06:56:45.477Z,20.9789
2023-03-20T06:57:46.934Z,21.1455
2023-03-20T06:58:48.361Z,21.2862
2023-03-20T06:59:49.857Z,21.3610
2023-03-20T07:00:51.237Z,21.5101
2023-03-20T07:01:52.829Z,21.5590
2023-03-20T07:02:54.134Z,21.6157
2023-03-20T07:03:55.572Z,21.6767
2023-03-20T07:04:57.043Z,21.7286
2023-03-20T07:05:58.465Z,21.7855
2023-03-20T07:06:59.904Z,21.8182
2023-03-20T07:08:01.353Z,21.8449
2023-03-20T07:09:02.805Z,21.8905
2023-03-20T07:10:04.227Z,21.9034
2023-03-20T07:11:05.667Z,21.9055
2023-03-20T07:12:07.104Z,21.9367
2023-03-20T07:13:08.539Z,21.9762
2023-03-20T07:14:09.988Z,21.9636
2023-03-20T07:15:11.436Z,21.9451
2023-03-20T07:16:12.944Z,21.9390
2023-03-20T07:17:14.304Z,21.9254
2023-03-20T07:18:15.754Z,21.9474
2023-03-20T07:19:17.181Z,21.9700
2023-03-20T07:20:18.629Z,21.9969
2023-03-20T07:21:20.066Z,22.0033
2023-03-20T07:22:21.508Z,22.0154
2023-03-20T07:23:22.966Z,22.0154
2023-03-20T07:24:24.385Z,22.0187
2023-03-20T07:25:41.510Z,22.0347
2023-03-20T07:26:27.270Z,22.0261
2023-03-20T07:27:28.743Z,22.0396
2023-03-20T07:28:30.158Z,22.0532
2023-03-20T07:29:31.612Z,22.1524
2023-03-20T07:30:33.034Z,22.0505
2023-03-20T07:31:34.522Z,22.1473
2023-03-20T07:32:37.728Z,22.2097
2023-03-20T07:33:37.331Z,22.2185
2023-03-20T07:34:38.793Z,22.1732
2023-03-20T07:35:40.237Z,22.1614
2023-03-20T07:36:41.662Z,22.2112
2023-03-20T07:37:43.084Z,22.2352
2023-03-20T07:38:44.535Z,22.2216
2023-03-20T07:39:45.964Z,22.2518
2023-03-20T07:40:47.421Z,22.2662
2023-03-20T07:41:48.847Z,22.2531
2023-03-20T07:42:50.287Z,22.2664
2023-03-20T07:43:51.714Z,22.2765
2023-03-20T07:44:53.157Z,22.3642
2023-03-20T07:45:54.602Z,22.3399
2023-03-20T07:46:56.069Z,22.3330
2023-03-20T07:47:57.511Z,22.3874
2023-03-20T07:48:58.913Z,22.3562
2023-03-20T07:50:00.357Z,22.3804
2023-03-20T07:51:01.788Z,22.3317
2023-03-20T07:52:03.251Z,22.4042
2023-03-20T07:53:04.667Z,22.3110
2023-03-20T07:54:06.101Z,22.3623
2023-03-20T07:55:07.569Z,22.3960
2023-03-20T07:56:08.974Z,22.3706
2023-03-20T07:57:10.438Z,22.3798
2023-03-20T07:58:11.850Z,22.4408
2023-03-20T07:59:13.332Z,22.4046
2023-03-20T08:00:14.737Z,22.4153
2023-03-20T08:01:16.175Z,22.3360
2023-03-20T08:02:17.632Z,22.2561
2023-03-20T08:03:19.218Z,22.3161
2023-03-20T08:04:20.542Z,22.3699
2023-03-20T08:05:21.954Z,22.3289
2023-03-20T08:06:23.401Z,22.3256
2023-03-20T08:07:24.813Z,22.3393
2023-03-20T08:08:26.253Z,22.3488
2023-03-20T08:09:27.710Z,22.3330
2023-03-20T08:10:29.140Z,22.3430
2023-03-20T08:11:32.621Z,22.3245
2023-03-20T08:12:32.029Z,22.3184
2023-03-20T08:13:33.471Z,22.3235
2023-03-20T08:14:34.933Z,22.3584
2023-03-20T08:15:36.628Z,22.3535
2023-03-20T08:16:37.858Z,22.3438
2023-03-20T08:17:39.247Z,22.1937
2023-03-20T08:18:40.685Z,21.9361
2023-03-20T08:19:42.135Z,21.9217
2023-03-20T08:20:43.576Z,22.3073
2023-03-20T08:21:45.026Z,22.1884
2023-03-20T08:22:46.451Z,22.2227
2023-03-20T08:23:47.920Z,22.3173
2023-03-20T08:24:49.351Z,22.3276
2023-03-20T08:25:50.789Z,22.3578
2023-03-20T08:26:52.227Z,22.3816
2023-03-20T08:27:53.674Z,22.3880
2023-03-20T08:28:55.192Z,22.3656
2023-03-20T08:29:56.634Z,22.3876
2023-03-20T08:30:58.123Z,22.4730
2023-03-20T08:31:59.619Z,22.6704
2023-03-20T08:33:00.980Z,22.5441
2023-03-20T08:34:02.397Z,22.5846
2023-03-20T08:35:03.834Z,22.5782
2023-03-20T08:36:05.327Z,22.6329
2023-03-20T08:37:06.722Z,22.6546
2023-03-20T08:38:08.163Z,22.6242
2023-03-20T08:39:09.598Z,22.6394
2023-03-20T08:40:11.045Z,22.6014
2023-03-20T08:41:12.479Z,22.6074
2023-03-20T08:42:13.923Z,22.5620
2023-03-20T08:43:15.381Z,22.6481
2023-03-20T08:44:16.806Z,22.6454
2023-03-20T08:45:18.234Z,22.6306
2023-03-20T08:46:19.793Z,22.6600
2023-03-20T08:47:21.113Z,22.5755
2023-03-20T08:48:22.566Z,22.6834
2023-03-20T08:49:24.000Z,22.6690
2023-03-20T08:50:25.449Z,22.6772
2023-03-20T08:51:26.873Z,22.6524
2023-03-20T08:52:28.316Z,22.7041
2023-03-20T08:53:29.750Z,22.6856
2023-03-20T08:54:31.229Z,22.7052
2023-03-20T08:55:32.650Z,22.7302
2023-03-20T08:56:34.098Z,22.7017
2023-03-20T08:57:35.511Z,22.7372
2023-03-20T08:58:36.983Z,22.7158
2023-03-20T08:59:38.415Z,22.7255
2023-03-20T09:00:39.837Z,22.7358
2023-03-20T09:01:49.410Z,22.7294
2023-03-20T09:02:42.792Z,22.7407
2023-03-20T09:03:44.164Z,22.7113
2023-03-20T09:04:45.609Z,22.7649
2023-03-20T09:05:47.044Z,22.7158
2023-03-20T09:06:48.579Z,22.7169
2023-03-20T09:07:49.945Z,22.7477
2023-03-20T09:08:51.370Z,22.7479
2023-03-20T09:09:52.813Z,22.6372
2023-03-20T09:10:54.257Z,22.7136
2023-03-20T09:11:55.699Z,22.8352
2023-03-20T09:12:57.160Z,22.7824
2023-03-20T09:13:58.577Z,22.7481
2023-03-20T09:15:00.057Z,22.7263
2023-03-20T09:16:01.479Z,22.7764
2023-03-20T09:17:02.905Z,22.7974
2023-03-20T09:18:04.354Z,22.7508
2023-03-20T09:19:05.793Z,22.7660
2023-03-20T09:20:07.224Z,22.7931
2023-03-20T09:21:08.682Z,22.7824
2023-03-20T09:22:10.111Z,22.7962
2023-03-20T09:23:11.581Z,22.8035
2023-03-20T09:24:12.995Z,22.8337
2023-03-20T09:25:14.438Z,22.7871
2023-03-20T09:26:15.882Z,22.7520
2023-03-20T09:27:17.323Z,22.7962
2023-03-20T09:28:18.771Z,22.8413
2023-03-20T09:29:20.202Z,22.8138
2023-03-20T09:30:21.668Z,22.8001
2023-03-20T09:31:23.119Z,22.8307
2023-03-20T09:32:24.510Z,22.8512
2023-03-20T09:33:25.962Z,22.8155
2023-03-20T09:34:27.414Z,22.8987
2023-03-20T09:35:28.845Z,22.9061
2023-03-20T09:36:30.281Z,22.8789
2023-03-20T09:37:31.731Z,22.8674
2023-03-20T09:38:33.189Z,22.8588
2023-03-20T09:39:34.611Z,22.8303
2023-03-20T09:40:36.353Z,22.8005
2023-03-20T09:41:52.820Z,22.8393
2023-03-20T09:42:38.928Z,22.9178
2023-03-20T09:43:40.399Z,22.8804
2023-03-20T09:44:41.827Z,22.8467
2023-03-20T09:45:43.261Z,22.8738
2023-03-20T09:46:44.719Z,22.8444
2023-03-20T09:47:46.153Z,22.8035
2023-03-20T09:48:47.592Z,22.8196
2023-03-20T09:49:49.016Z,22.8479
2023-03-20T09:50:50.472Z,22.8514
2023-03-20T09:51:51.896Z,22.8432
2023-03-20T09:52:53.336Z,22.8282
2023-03-20T09:53:54.777Z,22.8245
2023-03-20T09:54:56.204Z,22.8046
2023-03-20T09:55:57.729Z,22.8541
2023-03-20T09:56:59.088Z,22.8627
2023-03-20T09:58:00.548Z,22.8471
2023-03-20T09:59:01.990Z,22.8713
2023-03-20T10:00:03.420Z,22.8931
2023-03-20T10:01:04.858Z,22.8789
2023-03-20T10:02:06.329Z,22.8730
2023-03-20T10:03:07.729Z,22.8703
2023-03-20T10:04:09.228Z,22.9210
2023-03-20T10:05:10.596Z,22.8835
2023-03-20T10:06:12.037Z,22.8814
2023-03-20T10:07:13.470Z,22.8882
2023-03-20T10:08:16.226Z,22.9058
2023-03-20T10:09:16.353Z,22.8520
2023-03-20T10:10:17.801Z,22.8933
2023-03-20T10:11:19.237Z,22.8845
2023-03-20T10:12:20.705Z,22.9026
2023-03-20T10:13:22.156Z,22.8757
2023-03-20T10:14:23.595Z,22.9026
2023-03-20T10:15:25.017Z,22.8857
2023-03-20T10:16:26.515Z,22.8617
2023-03-20T10:17:27.877Z,22.8931
2023-03-20T10:18:29.345Z,22.9167
2023-03-20T10:19:30.769Z,22.9040
2023-03-20T10:20:32.219Z,22.8972
2023-03-20T10:21:33.662Z,22.9116
2023-03-20T10:22:35.082Z,22.8865
2023-03-20T10:23:36.521Z,22.8997
2023-03-20T10:24:37.988Z,22.9268
2023-03-20T10:25:39.422Z,22.9176
2023-03-20T10:26:40.894Z,22.9065
2023-03-20T10:27:42.269Z,22.8662
2023-03-20T10:28:43.724Z,22.8812
2023-03-20T10:29:45.151Z,22.9268
2023-03-20T10:30:46.609Z,22.9395
2023-03-20T10:31:48.101Z,22.8919
2023-03-20T10:32:49.514Z,22.9365
2023-03-20T10:33:50.930Z,22.9428
2023-03-20T10:34:52.374Z,22.9137
2023-03-20T10:35:53.834Z,22.9541
2023-03-20T10:36:55.270Z,22.9449
2023-03-20T10:37:56.700Z,22.9792
2023-03-20T10:38:58.146Z,22.9708
2023-03-20T10:39:59.594Z,22.9899
2023-03-20T10:41:01.021Z,22.9321
2023-03-20T10:42:02.460Z,22.9159
2023-03-20T10:43:03.917Z,22.9837
2023-03-20T10:44:05.339Z,22.9169
2023-03-20T10:45:06.772Z,22.9167
2023-03-20T10:46:08.237Z,23.0155
2023-03-20T10:47:09.708Z,22.9899
2023-03-20T10:48:11.087Z,23.0172
2023-03-20T10:49:12.559Z,22.9629
2023-03-20T10:50:13.968Z,22.9391
2023-03-20T10:51:15.411Z,22.9268
2023-03-20T10:52:16.863Z,22.9866
2023-03-20T10:53:18.300Z,22.9845
2023-03-20T10:54:19.738Z,22.9866
2023-03-20T10:55:21.222Z,23.0042
2023-03-20T10:56:22.628Z,20.6340
2023-03-20T10:57:24.064Z,19.1988
2023-03-20T10:58:25.525Z,17.9002
2023-03-20T10:59:26.982Z,17.8653
2023-03-20T11:00:28.407Z,17.5933
2023-03-20T11:01:29.914Z,17.6387
2023-03-20T11:02:31.312Z,19.8518
2023-03-20T11:03:32.740Z,20.8331
2023-03-20T11:04:34.263Z,21.3852
2023-03-20T11:05:35.622Z,21.7576
2023-03-20T11:06:37.109Z,21.9480
2023-03-20T11:07:38.518Z,22.1195
2023-03-20T11:08:39.963Z,22.3182
2023-03-20T11:09:41.389Z,22.3880
2023-03-20T11:10:42.844Z,22.4320
2023-03-20T11:11:44.304Z,22.4591
2023-03-20T11:12:45.721Z,22.5061
2023-03-20T11:13:47.169Z,22.5312
2023-03-20T11:14:48.615Z,22.6049
2023-03-20T11:15:50.043Z,22.6316
2023-03-20T11:16:51.542Z,22.6606
2023-03-20T11:17:52.937Z,22.6575
2023-03-20T11:18:54.385Z,22.6610
2023-03-20T11:19:55.825Z,22.6737
2023-03-20T11:20:57.271Z,22.6928
2023-03-20T11:21:58.721Z,22.7218
2023-03-20T11:23:00.152Z,22.7561
2023-03-20T11:24:01.600Z,22.7374
2023-03-20T11:25:03.118Z,22.7508
2023-03-20T11:26:04.498Z,22.7306
2023-03-20T11:27:05.921Z,22.7807
2023-03-20T11:28:07.355Z,22.7834
2023-03-20T11:29:08.819Z,22.7820
2023-03-20T11:30:10.232Z,22.7777
2023-03-20T11:31:11.684Z,22.7949
2023-03-20T11:32:13.161Z,22.8243
2023-03-20T11:33:14.616Z,22.8282
2023-03-20T11:34:15.993Z,22.8142
2023-03-20T11:35:17.460Z,22.8007
2023-03-20T11:36:18.872Z,22.8087
2023-03-20T11:37:20.426Z,22.8598
2023-03-20T11:38:21.764Z,22.8276
2023-03-20T11:39:23.229Z,22.8272
2023-03-20T11:40:24.656Z,22.8068
2023-03-20T11:41:26.111Z,22.8282
2023-03-20T11:42:27.530Z,22.8381
2023-03-20T11:43:28.973Z,22.8724
2023-03-20T11:44:30.413Z,22.7413
2023-03-20T11:45:31.901Z,22.8296
2023-03-20T11:46:33.301Z,22.8163
2023-03-20T11:47:34.746Z,22.8457
2023-03-20T11:48:36.166Z,22.9714
2023-03-20T11:49:37.610Z,22.8759
2023-03-20T11:50:39.363Z,22.9514
2023-03-20T11:51:40.500Z,22.9007
2023-03-20T11:52:41.927Z,22.9708
2023-03-20T11:53:43.370Z,22.8999
2023-03-20T11:54:44.809Z,22.9671
2023-03-20T11:55:46.258Z,22.9847
2023-03-20T11:56:47.703Z,22.9393
2023-03-20T11:57:49.148Z,22.9619
2023-03-20T11:58:50.587Z,23.0198
2023-03-20T11:59:52.030Z,22.9309
2023-03-20T12:00:53.466Z,22.9814
2023-03-20T12:01:54.907Z,23.0316
2023-03-20T12:02:56.364Z,22.9085
2023-03-20T12:03:57.897Z,22.9015
2023-03-20T12:04:59.232Z,22.9139
2023-03-20T12:06:00.710Z,22.9436
2023-03-20T12:07:02.114Z,22.9586
2023-03-20T12:08:03.558Z,22.9149
2023-03-20T12:09:04.997Z,22.9112
2023-03-20T12:10:06.454Z,22.9061
2023-03-20T12:11:07.883Z,22.9223
2023-03-20T12:12:09.344Z,22.9291
2023-03-20T12:13:10.799Z,22.9147
2023-03-20T12:14:12.204Z,22.9461
2023-03-20T12:15:13.661Z,22.8987
2023-03-20T12:16:15.181Z,22.9362
2023-03-20T12:17:16.530Z,22.9030
2023-03-20T12:18:17.990Z,22.9118
2023-03-20T12:19:19.423Z,22.8946
2023-03-20T12:20:20.882Z,22.9182
2023-03-20T12:21:22.344Z,22.9276
2023-03-20T12:22:23.753Z,22.9116
2023-03-20T12:23:25.181Z,22.9147